Pleasantville, IA

4:42 AM CST on November 22, 2014 (GMT -0600)
Des Moines International | Change Station
CLOSE
Current Station
Airport
Location: Des Moines,
Elevation: 965 ft
Nearby Weather Stations

Elev 965 ft 41.53 °N, 93.66 °W | Updated 12 minutes ago

Fog
Fog
38 °F
Feels Like 33 °F
N
7
Wind Variable Wind from South

Today
High -- | Low -- °F
--% Chance of Precip.
Yesterday
High -- | Low -- °F
Precip. -- in
7:09 AM 4:48 PM
Waning Crescent, 0% visible
Pressure 29.94 in
Visibility 0.8 miles
Clouds Mostly Cloudy 200 ft
Overcast 800 ft
Windchill 33 °F
Dew Point 37 °F
Humidity 97%
Rainfall 0.00 in
Snow Depth Not available.
UV 0 out of 12
Pollen .10 out of 12
Air Quality Not available.
Flu Activity Not available.
SPECI KDSM 221030Z 19006KT 3/4SM R31/3500V4000FT BR BKN002 OVC008 03/03 A2994 RMK AO2 T00330028

More Conditions Fewer Conditions

Pressure 29.94 in
Visibility 0.8 miles
Clouds Mostly Cloudy 200 ft
Overcast 800 ft
Windchill 33 °F
Dew Point 37 °F
Humidity 97%
Rainfall 0.00 in
Snow Depth Not available.
UV 0 out of 12
Pollen .10 out of 12
Air Quality Not available.
Flu Activity Not available.
SPECI KDSM 221030Z 19006KT 3/4SM R31/3500V4000FT BR BKN002 OVC008 03/03 A2994 RMK AO2 T00330028

More Conditions Fewer Conditions

10-Day Weather Forecast

Almanac

Astronomy

Nov. 22, 2014 Rise Set
Actual Time
Civil Twilight
Nautical Twilight
Astronomical Twilight
Moon
Length of Visible Light
Length of Day
Tomorrow will be .
, % of the Moon is Illuminated

Today's Extremes

State Highs State Lows

Community

WunderPhotos

Upload Photos

1,772,805 photos uploaded!

WunderBlogs® & News

Nearby

Air Quality

  Air Quality AQ Index Pollutant
Not available.

Snow Depth

Station Depth Elevation

Earthquake Activity

City Distance Mag. Time & Date
Minimum magnitude displayed is 2.5.

Coastal Water Temperatures

Place Temperature

Nearby Weather Stations